sensor_id;sensor_type;location;lat;lon;timestamp;temperature;humidity
11824;DHT22;5969;50.780;7.726;2022-10-31T00:00:10;10.80;99.90
11824;DHT22;5969;50.780;7.726;2022-10-31T00:02:37;10.80;99.90
11824;DHT22;5969;50.780;7.726;2022-10-31T00:05:05;10.70;99.90
11824;DHT22;5969;50.780;7.726;2022-10-31T00:07:32;10.80;99.90
11824;DHT22;5969;50.780;7.726;2022-10-31T00:09:59;10.70;99.90
11824;DHT22;5969;50.780;7.726;2022-10-31T00:12:26;10.60;99.90
11824;DHT22;5969;50.780;7.726;2022-10-31T00:14:53;10.60;99.90
11824;DHT22;5969;50.780;7.726;2022-10-31T00:17:20;10.60;99.90
11824;DHT22;5969;50.780;7.726;2022-10-31T00:19:46;10.50;99.90
11824;DHT22;5969;50.780;7.726;2022-10-31T00:22:14;10.40;99.90
11824;DHT22;5969;50.780;7.726;2022-10-31T00:24:41;10.40;99.90
11824;DHT22;5969;50.780;7.726;2022-10-31T00:27:08;10.60;99.90
11824;DHT22;5969;50.780;7.726;2022-10-31T00:29:35;10.50;99.90
11824;DHT22;5969;50.780;7.726;2022-10-31T00:32:02;10.50;99.90
11824;DHT22;5969;50.780;7.726;2022-10-31T00:34:28;10.50;99.90
11824;DHT22;5969;50.780;7.726;2022-10-31T00:36:55;10.50;99.90
11824;DHT22;5969;50.780;7.726;2022-10-31T00:39:23;10.50;99.90
11824;DHT22;5969;50.780;7.726;2022-10-31T00:41:50;10.50;99.90
11824;DHT22;5969;50.780;7.726;2022-10-31T00:44:17;10.40;99.90
11824;DHT22;5969;50.780;7.726;2022-10-31T00:46:44;10.30;99.90
11824;DHT22;5969;50.780;7.726;2022-10-31T00:49:10;10.30;99.90
11824;DHT22;5969;50.780;7.726;2022-10-31T00:51:37;10.30;99.90
11824;DHT22;5969;50.780;7.726;2022-10-31T00:54:04;10.30;99.90
11824;DHT22;5969;50.780;7.726;2022-10-31T00:56:32;10.30;99.90
11824;DHT22;5969;50.780;7.726;2022-10-31T00:58:59;10.30;99.90
11824;DHT22;5969;50.780;7.726;2022-10-31T01:01:26;10.20;99.90
11824;DHT22;5969;50.780;7.726;2022-10-31T01:03:53;10.20;99.90
11824;DHT22;5969;50.780;7.726;2022-10-31T01:06:19;10.30;99.90
11824;DHT22;5969;50.780;7.726;2022-10-31T01:08:47;10.30;99.90
11824;DHT22;5969;50.780;7.726;2022-10-31T01:11:15;10.30;99.90
11824;DHT22;5969;50.780;7.726;2022-10-31T01:13:44;10.30;99.90
11824;DHT22;5969;50.780;7.726;2022-10-31T01:16:13;10.30;99.90
11824;DHT22;5969;50.780;7.726;2022-10-31T01:18:40;10.30;99.90
11824;DHT22;5969;50.780;7.726;2022-10-31T01:21:08;10.30;99.90
11824;DHT22;5969;50.780;7.726;2022-10-31T01:23:35;10.30;99.90
11824;DHT22;5969;50.780;7.726;2022-10-31T01:26:05;10.30;99.90
11824;DHT22;5969;50.780;7.726;2022-10-31T01:28:32;10.40;99.90
11824;DHT22;5969;50.780;7.726;2022-10-31T01:31:06;10.40;99.90
11824;DHT22;5969;50.780;7.726;2022-10-31T01:33:33;10.50;99.90
11824;DHT22;5969;50.780;7.726;2022-10-31T01:36:01;10.50;99.90
11824;DHT22;5969;50.780;7.726;2022-10-31T01:38:28;10.50;99.90
11824;DHT22;5969;50.780;7.726;2022-10-31T01:40:54;10.50;99.90
11824;DHT22;5969;50.780;7.726;2022-10-31T01:43:21;10.50;99.90
11824;DHT22;5969;50.780;7.726;2022-10-31T01:45:51;10.50;99.90
11824;DHT22;5969;50.780;7.726;2022-10-31T01:48:24;10.50;99.90
11824;DHT22;5969;50.780;7.726;2022-10-31T01:50:54;10.60;99.90
11824;DHT22;5969;50.780;7.726;2022-10-31T01:53:22;10.60;99.90
11824;DHT22;5969;50.780;7.726;2022-10-31T01:55:49;10.50;99.90
11824;DHT22;5969;50.780;7.726;2022-10-31T01:58:19;10.40;99.90
11824;DHT22;5969;50.780;7.726;2022-10-31T02:00:49;10.40;99.90
11824;DHT22;5969;50.780;7.726;2022-10-31T02:03:20;10.40;99.90
11824;DHT22;5969;50.780;7.726;2022-10-31T02:05:49;10.50;99.90
11824;DHT22;5969;50.780;7.726;2022-10-31T02:08:20;10.50;99.90
11824;DHT22;5969;50.780;7.726;2022-10-31T02:10:48;10.40;99.90
11824;DHT22;5969;50.780;7.726;2022-10-31T02:13:15;10.30;99.90
11824;DHT22;5969;50.780;7.726;2022-10-31T02:15:44;10.30;99.90
11824;DHT22;5969;50.780;7.726;2022-10-31T02:18:11;10.20;99.90
11824;DHT22;5969;50.780;7.726;2022-10-31T02:20:48;10.20;99.90
11824;DHT22;5969;50.780;7.726;2022-10-31T02:26:44;10.00;99.90
11824;DHT22;5969;50.780;7.726;2022-10-31T02:32:27;10.10;99.90
11824;DHT22;5969;50.780;7.726;2022-10-31T02:34:59;10.10;99.90
11824;DHT22;5969;50.780;7.726;2022-10-31T02:37:36;10.00;99.90
11824;DHT22;5969;50.780;7.726;2022-10-31T02:40:10;10.00;99.90
11824;DHT22;5969;50.780;7.726;2022-10-31T02:42:46;9.90;99.90
11824;DHT22;5969;50.780;7.726;2022-10-31T02:45:20;9.80;99.90
11824;DHT22;5969;50.780;7.726;2022-10-31T02:47:50;9.80;99.90
11824;DHT22;5969;50.780;7.726;2022-10-31T02:50:22;9.90;99.90
11824;DHT22;5969;50.780;7.726;2022-10-31T02:52:50;9.80;99.90
11824;DHT22;5969;50.780;7.726;2022-10-31T02:55:47;9.70;99.90
11824;DHT22;5969;50.780;7.726;2022-10-31T02:58:19;9.90;99.90
11824;DHT22;5969;50.780;7.726;2022-10-31T03:01:03;9.90;99.90
11824;DHT22;5969;50.780;7.726;2022-10-31T03:03:40;9.90;99.90
11824;DHT22;5969;50.780;7.726;2022-10-31T03:06:16;9.90;99.90
11824;DHT22;5969;50.780;7.726;2022-10-31T03:08:50;9.90;99.90
11824;DHT22;5969;50.780;7.726;2022-10-31T03:11:24;9.80;99.90
11824;DHT22;5969;50.780;7.726;2022-10-31T03:13:59;9.80;99.90
11824;DHT22;5969;50.780;7.726;2022-10-31T03:16:31;9.80;99.90
11824;DHT22;5969;50.780;7.726;2022-10-31T03:19:04;9.80;99.90
11824;DHT22;5969;50.780;7.726;2022-10-31T03:21:35;9.60;99.90
11824;DHT22;5969;50.780;7.726;2022-10-31T03:24:06;9.60;99.90
11824;DHT22;5969;50.780;7.726;2022-10-31T03:26:35;9.50;99.90
11824;DHT22;5969;50.780;7.726;2022-10-31T03:29:05;9.50;99.90
11824;DHT22;5969;50.780;7.726;2022-10-31T03:31:36;9.60;99.90
11824;DHT22;5969;50.780;7.726;2022-10-31T03:34:07;9.50;99.90
11824;DHT22;5969;50.780;7.726;2022-10-31T03:36:37;9.40;99.90
11824;DHT22;5969;50.780;7.726;2022-10-31T03:39:06;9.40;99.90
11824;DHT22;5969;50.780;7.726;2022-10-31T03:41:40;9.40;99.90
11824;DHT22;5969;50.780;7.726;2022-10-31T03:44:09;9.40;99.90
11824;DHT22;5969;50.780;7.726;2022-10-31T03:46:38;9.40;99.90
11824;DHT22;5969;50.780;7.726;2022-10-31T03:49:06;9.40;99.90
11824;DHT22;5969;50.780;7.726;2022-10-31T03:51:38;9.40;99.90
11824;DHT22;5969;50.780;7.726;2022-10-31T03:54:11;9.40;99.90
11824;DHT22;5969;50.780;7.726;2022-10-31T03:56:43;9.40;99.90
11824;DHT22;5969;50.780;7.726;2022-10-31T03:59:15;9.40;99.90
11824;DHT22;5969;50.780;7.726;2022-10-31T04:01:47;9.30;99.90
11824;DHT22;5969;50.780;7.726;2022-10-31T04:04:18;9.30;99.90
11824;DHT22;5969;50.780;7.726;2022-10-31T04:06:46;9.30;99.90
11824;DHT22;5969;50.780;7.726;2022-10-31T04:09:14;9.20;99.90
11824;DHT22;5969;50.780;7.726;2022-10-31T04:11:47;9.20;99.90
11824;DHT22;5969;50.780;7.726;2022-10-31T04:14:15;9.20;99.90
11824;DHT22;5969;50.780;7.726;2022-10-31T04:16:43;9.10;99.90
11824;DHT22;5969;50.780;7.726;2022-10-31T04:19:11;9.10;99.90
11824;DHT22;5969;50.780;7.726;2022-10-31T04:21:40;9.20;99.90
11824;DHT22;5969;50.780;7.726;2022-10-31T04:24:08;9.20;99.90
11824;DHT22;5969;50.780;7.726;2022-10-31T04:26:35;9.20;99.90
11824;DHT22;5969;50.780;7.726;2022-10-31T04:29:02;9.20;99.90
11824;DHT22;5969;50.780;7.726;2022-10-31T04:31:29;9.30;99.90
11824;DHT22;5969;50.780;7.726;2022-10-31T04:33:56;9.30;99.90
11824;DHT22;5969;50.780;7.726;2022-10-31T04:36:23;9.10;99.90
11824;DHT22;5969;50.780;7.726;2022-10-31T04:38:51;9.00;99.90
11824;DHT22;5969;50.780;7.726;2022-10-31T04:41:17;9.00;99.90
11824;DHT22;5969;50.780;7.726;2022-10-31T04:43:44;8.90;99.90
11824;DHT22;5969;50.780;7.726;2022-10-31T04:46:11;9.00;99.90
11824;DHT22;5969;50.780;7.726;2022-10-31T04:48:38;9.00;99.90
11824;DHT22;5969;50.780;7.726;2022-10-31T04:51:05;9.00;99.90
11824;DHT22;5969;50.780;7.726;2022-10-31T04:53:31;9.10;99.90
11824;DHT22;5969;50.780;7.726;2022-10-31T04:56:00;9.10;99.90
11824;DHT22;5969;50.780;7.726;2022-10-31T04:58:27;9.10;99.90
11824;DHT22;5969;50.780;7.726;2022-10-31T05:00:54;9.00;99.90
11824;DHT22;5969;50.780;7.726;2022-10-31T05:03:21;8.90;99.90
11824;DHT22;5969;50.780;7.726;2022-10-31T05:05:48;8.80;99.90
11824;DHT22;5969;50.780;7.726;2022-10-31T05:08:15;8.90;99.90
11824;DHT22;5969;50.780;7.726;2022-10-31T05:10:42;8.90;99.90
11824;DHT22;5969;50.780;7.726;2022-10-31T05:13:10;9.00;99.90
11824;DHT22;5969;50.780;7.726;2022-10-31T05:15:37;9.10;99.90
11824;DHT22;5969;50.780;7.726;2022-10-31T05:18:03;9.10;99.90
11824;DHT22;5969;50.780;7.726;2022-10-31T05:20:30;9.10;99.90
11824;DHT22;5969;50.780;7.726;2022-10-31T05:22:59;8.90;99.90
11824;DHT22;5969;50.780;7.726;2022-10-31T05:25:27;8.80;99.90
11824;DHT22;5969;50.780;7.726;2022-10-31T05:27:56;8.80;99.90
11824;DHT22;5969;50.780;7.726;2022-10-31T05:30:25;8.80;99.90
11824;DHT22;5969;50.780;7.726;2022-10-31T05:32:53;8.80;99.90
11824;DHT22;5969;50.780;7.726;2022-10-31T05:35:23;8.90;99.90
11824;DHT22;5969;50.780;7.726;2022-10-31T05:37:50;9.00;99.90
11824;DHT22;5969;50.780;7.726;2022-10-31T05:40:18;9.00;99.90
11824;DHT22;5969;50.780;7.726;2022-10-31T05:42:46;9.10;99.90
11824;DHT22;5969;50.780;7.726;2022-10-31T05:45:14;9.10;99.90
11824;DHT22;5969;50.780;7.726;2022-10-31T05:47:50;9.10;99.90
11824;DHT22;5969;50.780;7.726;2022-10-31T05:50:17;9.10;99.90
11824;DHT22;5969;50.780;7.726;2022-10-31T05:52:43;9.00;99.90
11824;DHT22;5969;50.780;7.726;2022-10-31T05:55:10;8.80;99.90
11824;DHT22;5969;50.780;7.726;2022-10-31T05:57:37;8.70;99.90
11824;DHT22;5969;50.780;7.726;2022-10-31T06:00:05;8.60;99.90
11824;DHT22;5969;50.780;7.726;2022-10-31T06:02:32;8.60;99.90
11824;DHT22;5969;50.780;7.726;2022-10-31T06:05:01;8.60;99.90
11824;DHT22;5969;50.780;7.726;2022-10-31T06:07:32;8.70;99.90
11824;DHT22;5969;50.780;7.726;2022-10-31T06:09:59;8.80;99.90
11824;DHT22;5969;50.780;7.726;2022-10-31T06:12:26;8.90;99.90
11824;DHT22;5969;50.780;7.726;2022-10-31T06:14:53;9.00;99.90
11824;DHT22;5969;50.780;7.726;2022-10-31T06:17:20;9.00;99.90
11824;DHT22;5969;50.780;7.726;2022-10-31T06:19:47;9.00;99.90
11824;DHT22;5969;50.780;7.726;2022-10-31T06:22:15;9.00;99.90
11824;DHT22;5969;50.780;7.726;2022-10-31T06:24:42;9.00;99.90
11824;DHT22;5969;50.780;7.726;2022-10-31T06:27:08;8.90;99.90
11824;DHT22;5969;50.780;7.726;2022-10-31T06:29:35;8.70;99.90
11824;DHT22;5969;50.780;7.726;2022-10-31T06:32:02;8.70;99.90
11824;DHT22;5969;50.780;7.726;2022-10-31T06:34:29;8.70;99.90
11824;DHT22;5969;50.780;7.726;2022-10-31T06:36:56;8.80;99.90
11824;DHT22;5969;50.780;7.726;2022-10-31T06:39:24;8.90;99.90
11824;DHT22;5969;50.780;7.726;2022-10-31T06:41:51;8.90;99.90
11824;DHT22;5969;50.780;7.726;2022-10-31T06:44:17;8.80;99.90
11824;DHT22;5969;50.780;7.726;2022-10-31T06:46:46;8.80;99.90
11824;DHT22;5969;50.780;7.726;2022-10-31T06:49:12;8.90;99.90
11824;DHT22;5969;50.780;7.726;2022-10-31T06:51:39;8.90;99.90
11824;DHT22;5969;50.780;7.726;2022-10-31T06:54:06;8.90;99.90
11824;DHT22;5969;50.780;7.726;2022-10-31T06:56:34;8.90;99.90
11824;DHT22;5969;50.780;7.726;2022-10-31T06:59:01;8.60;99.90
11824;DHT22;5969;50.780;7.726;2022-10-31T07:01:28;8.70;99.90
11824;DHT22;5969;50.780;7.726;2022-10-31T07:03:55;8.80;99.90
11824;DHT22;5969;50.780;7.726;2022-10-31T07:06:21;8.90;99.90
11824;DHT22;5969;50.780;7.726;2022-10-31T07:08:48;9.00;99.90
11824;DHT22;5969;50.780;7.726;2022-10-31T07:11:15;9.10;99.90
11824;DHT22;5969;50.780;7.726;2022-10-31T07:13:44;9.30;99.90
11824;DHT22;5969;50.780;7.726;2022-10-31T07:16:10;9.40;99.90
11824;DHT22;5969;50.780;7.726;2022-10-31T07:18:39;9.60;99.90
11824;DHT22;5969;50.780;7.726;2022-10-31T07:21:06;9.70;99.90
11824;DHT22;5969;50.780;7.726;2022-10-31T07:23:32;9.80;99.90
11824;DHT22;5969;50.780;7.726;2022-10-31T07:25:59;9.80;99.90
11824;DHT22;5969;50.780;7.726;2022-10-31T07:28:27;9.90;99.90
11824;DHT22;5969;50.780;7.726;2022-10-31T07:30:57;10.00;99.90
11824;DHT22;5969;50.780;7.726;2022-10-31T07:33:24;10.00;99.90
11824;DHT22;5969;50.780;7.726;2022-10-31T07:35:52;10.10;99.90
11824;DHT22;5969;50.780;7.726;2022-10-31T07:38:19;10.10;99.90
11824;DHT22;5969;50.780;7.726;2022-10-31T07:40:49;10.20;99.90
11824;DHT22;5969;50.780;7.726;2022-10-31T07:43:17;10.20;99.90
11824;DHT22;5969;50.780;7.726;2022-10-31T07:45:44;10.30;99.90
11824;DHT22;5969;50.780;7.726;2022-10-31T07:48:16;10.40;99.90
11824;DHT22;5969;50.780;7.726;2022-10-31T07:50:43;10.50;99.90
11824;DHT22;5969;50.780;7.726;2022-10-31T07:53:11;10.50;99.90
11824;DHT22;5969;50.780;7.726;2022-10-31T07:55:39;10.60;99.90
11824;DHT22;5969;50.780;7.726;2022-10-31T07:58:07;10.50;99.90
11824;DHT22;5969;50.780;7.726;2022-10-31T08:00:35;10.60;99.90
11824;DHT22;5969;50.780;7.726;2022-10-31T08:03:04;10.70;99.90
11824;DHT22;5969;50.780;7.726;2022-10-31T08:05:33;10.80;99.90
11824;DHT22;5969;50.780;7.726;2022-10-31T08:08:00;10.80;99.90
11824;DHT22;5969;50.780;7.726;2022-10-31T08:10:27;10.90;99.90
11824;DHT22;5969;50.780;7.726;2022-10-31T08:12:56;10.70;99.90
11824;DHT22;5969;50.780;7.726;2022-10-31T08:15:23;10.90;99.90
11824;DHT22;5969;50.780;7.726;2022-10-31T08:17:50;11.10;99.90
11824;DHT22;5969;50.780;7.726;2022-10-31T08:20:17;11.30;99.90
11824;DHT22;5969;50.780;7.726;2022-10-31T08:22:54;11.50;99.90
11824;DHT22;5969;50.780;7.726;2022-10-31T08:25:21;11.60;99.90
11824;DHT22;5969;50.780;7.726;2022-10-31T08:27:49;11.60;99.90
11824;DHT22;5969;50.780;7.726;2022-10-31T08:30:17;11.70;99.90
11824;DHT22;5969;50.780;7.726;2022-10-31T08:32:44;11.80;99.90
11824;DHT22;5969;50.780;7.726;2022-10-31T08:35:11;11.90;99.90
11824;DHT22;5969;50.780;7.726;2022-10-31T08:37:37;12.00;99.90
11824;DHT22;5969;50.780;7.726;2022-10-31T08:40:07;12.00;99.90
11824;DHT22;5969;50.780;7.726;2022-10-31T08:42:33;12.10;99.90
11824;DHT22;5969;50.780;7.726;2022-10-31T08:45:00;12.20;99.90
11824;DHT22;5969;50.780;7.726;2022-10-31T08:47:27;12.40;99.90
11824;DHT22;5969;50.780;7.726;2022-10-31T08:49:54;12.50;99.90
11824;DHT22;5969;50.780;7.726;2022-10-31T08:52:23;12.60;99.90
11824;DHT22;5969;50.780;7.726;2022-10-31T08:54:50;12.60;99.90
11824;DHT22;5969;50.780;7.726;2022-10-31T08:57:18;12.60;99.90
11824;DHT22;5969;50.780;7.726;2022-10-31T08:59:45;12.50;99.90
11824;DHT22;5969;50.780;7.726;2022-10-31T09:02:13;12.50;99.90
11824;DHT22;5969;50.780;7.726;2022-10-31T09:04:40;12.60;99.90
11824;DHT22;5969;50.780;7.726;2022-10-31T09:07:06;12.80;99.90
11824;DHT22;5969;50.780;7.726;2022-10-31T09:09:33;12.90;99.90
11824;DHT22;5969;50.780;7.726;2022-10-31T09:12:00;13.10;99.90
11824;DHT22;5969;50.780;7.726;2022-10-31T09:14:28;13.30;99.90
11824;DHT22;5969;50.780;7.726;2022-10-31T09:16:55;13.50;99.90
11824;DHT22;5969;50.780;7.726;2022-10-31T09:19:22;13.60;99.90
11824;DHT22;5969;50.780;7.726;2022-10-31T09:21:52;13.80;99.90
11824;DHT22;5969;50.780;7.726;2022-10-31T09:24:19;13.90;99.90
11824;DHT22;5969;50.780;7.726;2022-10-31T09:26:46;14.10;99.90
11824;DHT22;5969;50.780;7.726;2022-10-31T09:29:13;14.40;99.90
11824;DHT22;5969;50.780;7.726;2022-10-31T09:31:44;14.50;99.90
11824;DHT22;5969;50.780;7.726;2022-10-31T09:34:11;14.70;99.90
11824;DHT22;5969;50.780;7.726;2022-10-31T09:36:38;14.90;99.90
11824;DHT22;5969;50.780;7.726;2022-10-31T09:39:05;15.00;99.90
11824;DHT22;5969;50.780;7.726;2022-10-31T09:41:57;15.10;99.90
11824;DHT22;5969;50.780;7.726;2022-10-31T09:44:30;15.30;99.90
11824;DHT22;5969;50.780;7.726;2022-10-31T09:47:07;15.30;99.90
11824;DHT22;5969;50.780;7.726;2022-10-31T09:49:49;15.30;99.90
11824;DHT22;5969;50.780;7.726;2022-10-31T09:52:23;15.30;99.90
11824;DHT22;5969;50.780;7.726;2022-10-31T09:54:53;15.30;99.90
11824;DHT22;5969;50.780;7.726;2022-10-31T09:57:24;15.30;99.90
11824;DHT22;5969;50.780;7.726;2022-10-31T09:59:51;15.40;99.90
11824;DHT22;5969;50.780;7.726;2022-10-31T10:02:24;15.50;99.90
11824;DHT22;5969;50.780;7.726;2022-10-31T10:04:57;15.70;99.90
11824;DHT22;5969;50.780;7.726;2022-10-31T10:07:35;15.70;99.90
11824;DHT22;5969;50.780;7.726;2022-10-31T10:10:13;15.70;99.90
11824;DHT22;5969;50.780;7.726;2022-10-31T10:12:53;15.70;99.90
11824;DHT22;5969;50.780;7.726;2022-10-31T10:15:39;15.80;99.90
11824;DHT22;5969;50.780;7.726;2022-10-31T10:18:17;15.80;99.90
11824;DHT22;5969;50.780;7.726;2022-10-31T10:20:58;15.90;99.90
11824;DHT22;5969;50.780;7.726;2022-10-31T10:23:37;16.10;99.90
11824;DHT22;5969;50.780;7.726;2022-10-31T10:26:14;16.40;99.90
11824;DHT22;5969;50.780;7.726;2022-10-31T10:28:44;16.70;99.90
11824;DHT22;5969;50.780;7.726;2022-10-31T10:31:14;17.00;99.90
11824;DHT22;5969;50.780;7.726;2022-10-31T10:33:47;17.20;99.90
11824;DHT22;5969;50.780;7.726;2022-10-31T10:36:21;17.40;99.90
11824;DHT22;5969;50.780;7.726;2022-10-31T10:38:51;17.70;99.90
11824;DHT22;5969;50.780;7.726;2022-10-31T10:41:20;17.90;99.90
11824;DHT22;5969;50.780;7.726;2022-10-31T10:43:49;18.20;99.90
11824;DHT22;5969;50.780;7.726;2022-10-31T10:46:18;18.20;99.90
11824;DHT22;5969;50.780;7.726;2022-10-31T10:49:21;18.30;99.90
11824;DHT22;5969;50.780;7.726;2022-10-31T10:51:54;18.60;99.90
11824;DHT22;5969;50.780;7.726;2022-10-31T10:54:49;18.70;99.90
11824;DHT22;5969;50.780;7.726;2022-10-31T10:57:27;19.00;99.90
11824;DHT22;5969;50.780;7.726;2022-10-31T10:59:59;19.30;99.90
11824;DHT22;5969;50.780;7.726;2022-10-31T11:02:30;19.60;99.90
11824;DHT22;5969;50.780;7.726;2022-10-31T11:05:01;20.10;99.90
11824;DHT22;5969;50.780;7.726;2022-10-31T11:07:38;20.90;99.90
11824;DHT22;5969;50.780;7.726;2022-10-31T11:10:06;22.00;99.90
11824;DHT22;5969;50.780;7.726;2022-10-31T11:12:39;22.60;99.90
11824;DHT22;5969;50.780;7.726;2022-10-31T11:15:16;23.00;99.90
11824;DHT22;5969;50.780;7.726;2022-10-31T11:17:48;23.40;99.90
11824;DHT22;5969;50.780;7.726;2022-10-31T11:20:30;23.80;99.90
11824;DHT22;5969;50.780;7.726;2022-10-31T11:23:03;23.80;99.90
11824;DHT22;5969;50.780;7.726;2022-10-31T11:25:30;24.00;99.90
11824;DHT22;5969;50.780;7.726;2022-10-31T11:28:00;24.10;99.90
11824;DHT22;5969;50.780;7.726;2022-10-31T11:30:28;24.10;99.90
11824;DHT22;5969;50.780;7.726;2022-10-31T11:32:55;24.30;99.90
11824;DHT22;5969;50.780;7.726;2022-10-31T11:35:24;24.70;99.90
11824;DHT22;5969;50.780;7.726;2022-10-31T11:37:55;24.80;99.90
11824;DHT22;5969;50.780;7.726;2022-10-31T11:40:26;24.80;99.90
11824;DHT22;5969;50.780;7.726;2022-10-31T11:42:55;24.90;99.90
11824;DHT22;5969;50.780;7.726;2022-10-31T11:45:30;24.80;99.90
11824;DHT22;5969;50.780;7.726;2022-10-31T11:47:58;24.50;99.90
11824;DHT22;5969;50.780;7.726;2022-10-31T11:50:29;24.00;99.90
11824;DHT22;5969;50.780;7.726;2022-10-31T11:53:00;23.60;99.90
11824;DHT22;5969;50.780;7.726;2022-10-31T11:55:33;22.90;99.90
11824;DHT22;5969;50.780;7.726;2022-10-31T11:58:00;22.80;99.90
11824;DHT22;5969;50.780;7.726;2022-10-31T12:00:29;23.00;99.90
11824;DHT22;5969;50.780;7.726;2022-10-31T12:03:32;23.50;99.90
11824;DHT22;5969;50.780;7.726;2022-10-31T12:06:03;24.40;99.90
11824;DHT22;5969;50.780;7.726;2022-10-31T12:08:35;24.70;99.90
11824;DHT22;5969;50.780;7.726;2022-10-31T12:11:11;25.50;99.90
11824;DHT22;5969;50.780;7.726;2022-10-31T12:13:49;26.10;99.90
11824;DHT22;5969;50.780;7.726;2022-10-31T12:16:20;26.30;99.90
11824;DHT22;5969;50.780;7.726;2022-10-31T12:18:57;26.40;99.90
11824;DHT22;5969;50.780;7.726;2022-10-31T12:21:38;26.90;99.90
11824;DHT22;5969;50.780;7.726;2022-10-31T12:24:18;27.10;99.90
11824;DHT22;5969;50.780;7.726;2022-10-31T12:26:57;26.80;99.90
11824;DHT22;5969;50.780;7.726;2022-10-31T12:29:39;26.50;99.90
11824;DHT22;5969;50.780;7.726;2022-10-31T12:32:23;26.20;99.90
11824;DHT22;5969;50.780;7.726;2022-10-31T12:35:08;26.00;99.90
11824;DHT22;5969;50.780;7.726;2022-10-31T12:37:49;25.10;99.90
11824;DHT22;5969;50.780;7.726;2022-10-31T12:40:30;25.30;99.90
11824;DHT22;5969;50.780;7.726;2022-10-31T12:43:08;26.20;99.90
11824;DHT22;5969;50.780;7.726;2022-10-31T12:45:46;27.20;99.90
11824;DHT22;5969;50.780;7.726;2022-10-31T12:48:37;28.30;99.90
11824;DHT22;5969;50.780;7.726;2022-10-31T12:51:12;28.10;99.90
11824;DHT22;5969;50.780;7.726;2022-10-31T12:53:50;27.30;99.90
11824;DHT22;5969;50.780;7.726;2022-10-31T12:56:35;26.50;99.90
11824;DHT22;5969;50.780;7.726;2022-10-31T12:59:09;25.80;99.90
11824;DHT22;5969;50.780;7.726;2022-10-31T13:01:41;25.10;99.90
11824;DHT22;5969;50.780;7.726;2022-10-31T13:04:16;24.10;99.90
11824;DHT22;5969;50.780;7.726;2022-10-31T13:06:48;23.60;99.90
11824;DHT22;5969;50.780;7.726;2022-10-31T13:09:19;23.40;99.90
11824;DHT22;5969;50.780;7.726;2022-10-31T13:11:51;23.10;99.90
11824;DHT22;5969;50.780;7.726;2022-10-31T13:14:24;22.70;99.90
11824;DHT22;5969;50.780;7.726;2022-10-31T13:16:54;22.30;99.90
11824;DHT22;5969;50.780;7.726;2022-10-31T13:19:23;21.90;99.90
11824;DHT22;5969;50.780;7.726;2022-10-31T13:21:57;21.70;99.90
11824;DHT22;5969;50.780;7.726;2022-10-31T13:24:30;21.50;99.90
11824;DHT22;5969;50.780;7.726;2022-10-31T13:27:02;21.20;99.90
11824;DHT22;5969;50.780;7.726;2022-10-31T13:29:32;21.20;99.90
11824;DHT22;5969;50.780;7.726;2022-10-31T13:32:03;21.10;99.90
11824;DHT22;5969;50.780;7.726;2022-10-31T13:34:33;21.00;99.90
11824;DHT22;5969;50.780;7.726;2022-10-31T13:37:05;20.80;99.90
11824;DHT22;5969;50.780;7.726;2022-10-31T13:39:45;20.60;99.90
11824;DHT22;5969;50.780;7.726;2022-10-31T13:42:19;20.60;99.90
11824;DHT22;5969;50.780;7.726;2022-10-31T13:44:48;20.50;99.90
11824;DHT22;5969;50.780;7.726;2022-10-31T13:47:25;20.40;99.90
11824;DHT22;5969;50.780;7.726;2022-10-31T13:50:03;20.50;99.90
11824;DHT22;5969;50.780;7.726;2022-10-31T13:52:30;20.60;99.90
11824;DHT22;5969;50.780;7.726;2022-10-31T13:54:57;20.60;99.90
11824;DHT22;5969;50.780;7.726;2022-10-31T13:57:31;20.50;99.90
11824;DHT22;5969;50.780;7.726;2022-10-31T14:00:00;20.50;99.90
11824;DHT22;5969;50.780;7.726;2022-10-31T14:02:30;20.40;99.90
11824;DHT22;5969;50.780;7.726;2022-10-31T14:05:00;20.30;99.90
11824;DHT22;5969;50.780;7.726;2022-10-31T14:07:28;20.30;99.90
11824;DHT22;5969;50.780;7.726;2022-10-31T14:09:58;20.20;99.90
11824;DHT22;5969;50.780;7.726;2022-10-31T14:12:30;20.20;99.90
11824;DHT22;5969;50.780;7.726;2022-10-31T14:15:03;20.10;99.90
11824;DHT22;5969;50.780;7.726;2022-10-31T14:17:36;20.00;99.90
11824;DHT22;5969;50.780;7.726;2022-10-31T14:20:24;19.80;99.90
11824;DHT22;5969;50.780;7.726;2022-10-31T14:22:51;19.60;99.90
11824;DHT22;5969;50.780;7.726;2022-10-31T14:25:29;19.40;99.90
11824;DHT22;5969;50.780;7.726;2022-10-31T14:27:59;19.40;99.90
11824;DHT22;5969;50.780;7.726;2022-10-31T14:30:28;19.40;99.90
11824;DHT22;5969;50.780;7.726;2022-10-31T14:32:58;19.40;99.90
11824;DHT22;5969;50.780;7.726;2022-10-31T14:35:35;19.30;99.90
11824;DHT22;5969;50.780;7.726;2022-10-31T14:38:25;19.40;99.90
11824;DHT22;5969;50.780;7.726;2022-10-31T14:41:11;19.20;99.90
11824;DHT22;5969;50.780;7.726;2022-10-31T14:44:05;19.10;99.90
11824;DHT22;5969;50.780;7.726;2022-10-31T14:46:44;19.20;99.90
11824;DHT22;5969;50.780;7.726;2022-10-31T14:49:27;19.20;99.90
11824;DHT22;5969;50.780;7.726;2022-10-31T14:51:58;19.30;99.90
11824;DHT22;5969;50.780;7.726;2022-10-31T14:54:28;19.40;99.90
11824;DHT22;5969;50.780;7.726;2022-10-31T14:56:59;19.50;99.90
11824;DHT22;5969;50.780;7.726;2022-10-31T14:59:31;19.60;99.90
11824;DHT22;5969;50.780;7.726;2022-10-31T15:02:07;19.90;99.90
11824;DHT22;5969;50.780;7.726;2022-10-31T15:04:35;20.00;99.90
11824;DHT22;5969;50.780;7.726;2022-10-31T15:07:05;20.20;99.90
11824;DHT22;5969;50.780;7.726;2022-10-31T15:09:34;21.40;99.90
11824;DHT22;5969;50.780;7.726;2022-10-31T15:12:16;22.50;99.90
11824;DHT22;5969;50.780;7.726;2022-10-31T15:14:49;22.80;99.90
11824;DHT22;5969;50.780;7.726;2022-10-31T15:17:16;23.30;99.90
11824;DHT22;5969;50.780;7.726;2022-10-31T15:19:43;23.30;99.90
11824;DHT22;5969;50.780;7.726;2022-10-31T15:22:14;23.20;99.90
11824;DHT22;5969;50.780;7.726;2022-10-31T15:24:43;23.10;99.90
11824;DHT22;5969;50.780;7.726;2022-10-31T15:27:12;22.90;99.90
11824;DHT22;5969;50.780;7.726;2022-10-31T15:29:49;22.60;99.90
11824;DHT22;5969;50.780;7.726;2022-10-31T15:32:19;22.20;99.90
11824;DHT22;5969;50.780;7.726;2022-10-31T15:34:48;21.90;99.90
11824;DHT22;5969;50.780;7.726;2022-10-31T15:37:16;21.50;99.90
11824;DHT22;5969;50.780;7.726;2022-10-31T15:39:44;21.20;99.90
11824;DHT22;5969;50.780;7.726;2022-10-31T15:42:19;20.90;99.90
11824;DHT22;5969;50.780;7.726;2022-10-31T15:44:51;20.70;99.90
11824;DHT22;5969;50.780;7.726;2022-10-31T15:47:20;20.30;99.90
11824;DHT22;5969;50.780;7.726;2022-10-31T15:49:50;20.00;99.90
11824;DHT22;5969;50.780;7.726;2022-10-31T15:52:27;19.80;99.90
11824;DHT22;5969;50.780;7.726;2022-10-31T15:54:57;19.30;99.90
11824;DHT22;5969;50.780;7.726;2022-10-31T15:57:25;18.90;99.90
11824;DHT22;5969;50.780;7.726;2022-10-31T15:59:54;18.70;99.90
11824;DHT22;5969;50.780;7.726;2022-10-31T16:02:23;18.50;99.90
11824;DHT22;5969;50.780;7.726;2022-10-31T16:04:53;18.30;99.90
11824;DHT22;5969;50.780;7.726;2022-10-31T16:07:21;18.00;99.90
11824;DHT22;5969;50.780;7.726;2022-10-31T16:09:54;17.80;99.90
11824;DHT22;5969;50.780;7.726;2022-10-31T16:12:23;17.70;99.90
11824;DHT22;5969;50.780;7.726;2022-10-31T16:14:54;17.50;99.90
11824;DHT22;5969;50.780;7.726;2022-10-31T16:17:24;17.50;99.90